sensor_id;sensor_type;location;lat;lon;timestamp;temperature;humidity
81321;DHT22;70785;52.570;5.638;2023-07-13T00:01:15;16.80;66.80
81321;DHT22;70785;52.570;5.638;2023-07-13T00:03:41;16.80;66.90
81321;DHT22;70785;52.570;5.638;2023-07-13T00:06:08;16.80;67.00
81321;DHT22;70785;52.570;5.638;2023-07-13T00:08:35;16.80;67.10
81321;DHT22;70785;52.570;5.638;2023-07-13T00:11:02;16.70;67.20
81321;DHT22;70785;52.570;5.638;2023-07-13T00:13:29;16.80;67.20
81321;DHT22;70785;52.570;5.638;2023-07-13T00:15:58;16.70;67.40
81321;DHT22;70785;52.570;5.638;2023-07-13T00:18:24;16.70;67.50
81321;DHT22;70785;52.570;5.638;2023-07-13T00:20:50;16.70;67.70
81321;DHT22;70785;52.570;5.638;2023-07-13T00:23:16;16.70;67.80
81321;DHT22;70785;52.570;5.638;2023-07-13T00:25:43;16.60;67.90
81321;DHT22;70785;52.570;5.638;2023-07-13T00:28:09;16.60;68.00
81321;DHT22;70785;52.570;5.638;2023-07-13T00:30:35;16.60;68.20
81321;DHT22;70785;52.570;5.638;2023-07-13T00:33:01;16.60;68.20
81321;DHT22;70785;52.570;5.638;2023-07-13T00:35:30;16.60;68.30
81321;DHT22;70785;52.570;5.638;2023-07-13T00:37:57;16.60;68.40
81321;DHT22;70785;52.570;5.638;2023-07-13T00:40:24;16.60;68.50
81321;DHT22;70785;52.570;5.638;2023-07-13T00:42:52;16.60;68.70
81321;DHT22;70785;52.570;5.638;2023-07-13T00:47:45;16.50;68.90
81321;DHT22;70785;52.570;5.638;2023-07-13T00:50:14;16.50;69.00
81321;DHT22;70785;52.570;5.638;2023-07-13T00:52:43;16.60;69.10
81321;DHT22;70785;52.570;5.638;2023-07-13T00:55:11;16.60;69.20
81321;DHT22;70785;52.570;5.638;2023-07-13T00:57:39;16.60;69.20
81321;DHT22;70785;52.570;5.638;2023-07-13T01:00:08;16.60;69.20
81321;DHT22;70785;52.570;5.638;2023-07-13T01:02:38;16.60;69.30
81321;DHT22;70785;52.570;5.638;2023-07-13T01:05:13;16.60;69.40
81321;DHT22;70785;52.570;5.638;2023-07-13T01:07:41;16.60;69.50
81321;DHT22;70785;52.570;5.638;2023-07-13T01:10:08;16.50;69.50
81321;DHT22;70785;52.570;5.638;2023-07-13T01:12:34;16.60;69.60
81321;DHT22;70785;52.570;5.638;2023-07-13T01:15:01;16.50;69.70
81321;DHT22;70785;52.570;5.638;2023-07-13T01:17:29;16.50;69.80
81321;DHT22;70785;52.570;5.638;2023-07-13T01:19:55;16.50;69.90
81321;DHT22;70785;52.570;5.638;2023-07-13T01:22:23;16.40;69.90
81321;DHT22;70785;52.570;5.638;2023-07-13T01:24:53;16.40;70.00
81321;DHT22;70785;52.570;5.638;2023-07-13T01:27:25;16.40;70.10
81321;DHT22;70785;52.570;5.638;2023-07-13T01:29:52;16.40;70.20
81321;DHT22;70785;52.570;5.638;2023-07-13T01:32:21;16.40;70.20
81321;DHT22;70785;52.570;5.638;2023-07-13T01:34:51;16.40;70.30
81321;DHT22;70785;52.570;5.638;2023-07-13T01:37:20;16.40;70.30
81321;DHT22;70785;52.570;5.638;2023-07-13T01:39:46;16.40;70.30
81321;DHT22;70785;52.570;5.638;2023-07-13T01:42:13;16.40;70.40
81321;DHT22;70785;52.570;5.638;2023-07-13T01:44:40;16.40;70.40
81321;DHT22;70785;52.570;5.638;2023-07-13T01:47:07;16.40;70.40
81321;DHT22;70785;52.570;5.638;2023-07-13T01:49:33;16.40;70.40
81321;DHT22;70785;52.570;5.638;2023-07-13T01:51:59;16.40;70.50
81321;DHT22;70785;52.570;5.638;2023-07-13T01:54:26;16.50;70.50
81321;DHT22;70785;52.570;5.638;2023-07-13T01:56:52;16.50;70.40
81321;DHT22;70785;52.570;5.638;2023-07-13T01:59:18;16.50;70.50
81321;DHT22;70785;52.570;5.638;2023-07-13T02:01:44;16.50;70.40
81321;DHT22;70785;52.570;5.638;2023-07-13T02:04:10;16.50;70.40
81321;DHT22;70785;52.570;5.638;2023-07-13T02:06:36;16.50;70.50
81321;DHT22;70785;52.570;5.638;2023-07-13T02:09:02;16.50;70.50
81321;DHT22;70785;52.570;5.638;2023-07-13T02:11:29;16.40;70.70
81321;DHT22;70785;52.570;5.638;2023-07-13T02:14:02;16.40;70.70
81321;DHT22;70785;52.570;5.638;2023-07-13T02:16:29;16.40;70.80
81321;DHT22;70785;52.570;5.638;2023-07-13T02:18:56;16.40;70.80
81321;DHT22;70785;52.570;5.638;2023-07-13T02:21:22;16.30;70.90
81321;DHT22;70785;52.570;5.638;2023-07-13T02:23:51;16.20;70.90
81321;DHT22;70785;52.570;5.638;2023-07-13T02:26:19;16.20;71.00
81321;DHT22;70785;52.570;5.638;2023-07-13T02:28:45;16.20;71.00
81321;DHT22;70785;52.570;5.638;2023-07-13T02:31:14;16.20;71.10
81321;DHT22;70785;52.570;5.638;2023-07-13T02:33:40;16.20;71.10
81321;DHT22;70785;52.570;5.638;2023-07-13T02:36:07;16.40;71.20
81321;DHT22;70785;52.570;5.638;2023-07-13T02:38:34;16.40;71.10
81321;DHT22;70785;52.570;5.638;2023-07-13T02:41:06;16.40;71.10
81321;DHT22;70785;52.570;5.638;2023-07-13T02:43:33;16.20;71.10
81321;DHT22;70785;52.570;5.638;2023-07-13T02:46:01;16.20;71.20
81321;DHT22;70785;52.570;5.638;2023-07-13T02:48:37;16.20;71.20
81321;DHT22;70785;52.570;5.638;2023-07-13T02:51:03;16.10;71.30
81321;DHT22;70785;52.570;5.638;2023-07-13T02:53:29;16.10;71.20
81321;DHT22;70785;52.570;5.638;2023-07-13T02:55:56;16.10;71.20
81321;DHT22;70785;52.570;5.638;2023-07-13T02:58:22;16.00;71.30
81321;DHT22;70785;52.570;5.638;2023-07-13T03:00:48;16.00;71.40
81321;DHT22;70785;52.570;5.638;2023-07-13T03:03:16;16.00;71.40
81321;DHT22;70785;52.570;5.638;2023-07-13T03:05:44;16.00;71.40
81321;DHT22;70785;52.570;5.638;2023-07-13T03:08:11;16.00;71.30
81321;DHT22;70785;52.570;5.638;2023-07-13T03:10:39;16.00;71.30
81321;DHT22;70785;52.570;5.638;2023-07-13T03:13:09;16.00;71.40
81321;DHT22;70785;52.570;5.638;2023-07-13T03:15:35;16.00;71.40
81321;DHT22;70785;52.570;5.638;2023-07-13T03:18:02;16.00;71.50
81321;DHT22;70785;52.570;5.638;2023-07-13T03:20:28;15.90;71.50
81321;DHT22;70785;52.570;5.638;2023-07-13T03:22:54;16.00;71.50
81321;DHT22;70785;52.570;5.638;2023-07-13T03:25:21;16.00;71.50
81321;DHT22;70785;52.570;5.638;2023-07-13T03:27:48;15.90;71.50
81321;DHT22;70785;52.570;5.638;2023-07-13T03:30:14;15.90;71.50
81321;DHT22;70785;52.570;5.638;2023-07-13T03:32:42;15.90;71.50
81321;DHT22;70785;52.570;5.638;2023-07-13T03:35:08;16.00;71.50
81321;DHT22;70785;52.570;5.638;2023-07-13T03:37:36;15.90;71.50
81321;DHT22;70785;52.570;5.638;2023-07-13T03:40:11;16.00;71.50
81321;DHT22;70785;52.570;5.638;2023-07-13T03:42:38;15.90;71.50
81321;DHT22;70785;52.570;5.638;2023-07-13T03:45:04;16.00;71.50
81321;DHT22;70785;52.570;5.638;2023-07-13T03:47:32;16.00;71.50
81321;DHT22;70785;52.570;5.638;2023-07-13T03:49:59;15.90;71.50
81321;DHT22;70785;52.570;5.638;2023-07-13T03:52:26;16.00;71.50
81321;DHT22;70785;52.570;5.638;2023-07-13T03:54:52;16.00;71.50
81321;DHT22;70785;52.570;5.638;2023-07-13T03:57:18;16.00;71.50
81321;DHT22;70785;52.570;5.638;2023-07-13T03:59:44;16.00;71.50
81321;DHT22;70785;52.570;5.638;2023-07-13T04:02:11;16.00;71.40
81321;DHT22;70785;52.570;5.638;2023-07-13T04:04:37;16.00;71.40
81321;DHT22;70785;52.570;5.638;2023-07-13T04:07:07;16.00;71.40
81321;DHT22;70785;52.570;5.638;2023-07-13T04:09:34;16.00;71.40
81321;DHT22;70785;52.570;5.638;2023-07-13T04:12:01;15.90;71.40
81321;DHT22;70785;52.570;5.638;2023-07-13T04:14:27;15.80;71.50
81321;DHT22;70785;52.570;5.638;2023-07-13T04:16:53;15.80;71.50
81321;DHT22;70785;52.570;5.638;2023-07-13T04:19:21;15.80;71.60
81321;DHT22;70785;52.570;5.638;2023-07-13T04:21:47;15.80;71.50
81321;DHT22;70785;52.570;5.638;2023-07-13T04:24:13;15.80;71.60
81321;DHT22;70785;52.570;5.638;2023-07-13T04:26:39;15.80;71.70
81321;DHT22;70785;52.570;5.638;2023-07-13T04:29:06;15.80;71.70
81321;DHT22;70785;52.570;5.638;2023-07-13T04:31:33;15.80;71.70
81321;DHT22;70785;52.570;5.638;2023-07-13T04:33:59;15.80;71.70
81321;DHT22;70785;52.570;5.638;2023-07-13T04:36:26;15.80;71.70
81321;DHT22;70785;52.570;5.638;2023-07-13T04:38:54;15.80;71.70
81321;DHT22;70785;52.570;5.638;2023-07-13T04:41:21;16.00;71.60
81321;DHT22;70785;52.570;5.638;2023-07-13T04:43:48;16.00;71.50
81321;DHT22;70785;52.570;5.638;2023-07-13T04:46:16;16.00;71.50
81321;DHT22;70785;52.570;5.638;2023-07-13T04:48:46;16.00;71.50
81321;DHT22;70785;52.570;5.638;2023-07-13T04:51:12;16.00;71.50
81321;DHT22;70785;52.570;5.638;2023-07-13T04:53:38;16.10;71.50
81321;DHT22;70785;52.570;5.638;2023-07-13T04:56:05;16.10;71.40
81321;DHT22;70785;52.570;5.638;2023-07-13T04:58:31;16.20;71.30
81321;DHT22;70785;52.570;5.638;2023-07-13T05:01:04;16.20;71.30
81321;DHT22;70785;52.570;5.638;2023-07-13T05:03:31;16.30;71.30
81321;DHT22;70785;52.570;5.638;2023-07-13T05:05:59;16.40;71.20
81321;DHT22;70785;52.570;5.638;2023-07-13T05:08:26;16.40;71.10
81321;DHT22;70785;52.570;5.638;2023-07-13T05:10:52;16.50;71.00
81321;DHT22;70785;52.570;5.638;2023-07-13T05:13:18;16.60;70.90
81321;DHT22;70785;52.570;5.638;2023-07-13T05:15:45;16.70;70.80
81321;DHT22;70785;52.570;5.638;2023-07-13T05:18:11;16.80;70.70
81321;DHT22;70785;52.570;5.638;2023-07-13T05:20:37;17.00;70.50
81321;DHT22;70785;52.570;5.638;2023-07-13T05:23:03;17.00;70.40
81321;DHT22;70785;52.570;5.638;2023-07-13T05:25:29;17.20;70.30
81321;DHT22;70785;52.570;5.638;2023-07-13T05:27:55;17.20;70.10
81321;DHT22;70785;52.570;5.638;2023-07-13T05:30:21;17.30;70.00
81321;DHT22;70785;52.570;5.638;2023-07-13T05:32:48;17.40;69.90
81321;DHT22;70785;52.570;5.638;2023-07-13T05:35:14;17.40;69.80
81321;DHT22;70785;52.570;5.638;2023-07-13T05:37:40;17.50;69.70
81321;DHT22;70785;52.570;5.638;2023-07-13T05:40:06;17.50;69.50
81321;DHT22;70785;52.570;5.638;2023-07-13T05:42:33;17.60;69.30
81321;DHT22;70785;52.570;5.638;2023-07-13T05:44:59;17.50;69.20
81321;DHT22;70785;52.570;5.638;2023-07-13T05:47:25;17.50;69.30
81321;DHT22;70785;52.570;5.638;2023-07-13T05:49:51;17.60;69.20
81321;DHT22;70785;52.570;5.638;2023-07-13T05:52:17;17.60;69.10
81321;DHT22;70785;52.570;5.638;2023-07-13T05:54:43;17.60;69.20
81321;DHT22;70785;52.570;5.638;2023-07-13T05:57:09;17.50;69.20
81321;DHT22;70785;52.570;5.638;2023-07-13T05:59:36;17.50;69.20
81321;DHT22;70785;52.570;5.638;2023-07-13T06:02:03;17.50;69.20
81321;DHT22;70785;52.570;5.638;2023-07-13T06:04:29;17.50;69.20
81321;DHT22;70785;52.570;5.638;2023-07-13T06:06:55;17.60;69.30
81321;DHT22;70785;52.570;5.638;2023-07-13T06:09:21;17.60;69.30
81321;DHT22;70785;52.570;5.638;2023-07-13T06:11:47;17.80;69.30
81321;DHT22;70785;52.570;5.638;2023-07-13T06:14:13;17.80;69.30
81321;DHT22;70785;52.570;5.638;2023-07-13T06:16:40;17.80;69.30
81321;DHT22;70785;52.570;5.638;2023-07-13T06:19:06;17.90;69.30
81321;DHT22;70785;52.570;5.638;2023-07-13T06:21:32;18.00;69.30
81321;DHT22;70785;52.570;5.638;2023-07-13T06:23:58;18.00;69.20
81321;DHT22;70785;52.570;5.638;2023-07-13T06:26:24;18.10;69.20
81321;DHT22;70785;52.570;5.638;2023-07-13T06:28:50;18.20;69.10
81321;DHT22;70785;52.570;5.638;2023-07-13T06:31:16;18.20;69.10
81321;DHT22;70785;52.570;5.638;2023-07-13T06:33:43;18.30;69.00
81321;DHT22;70785;52.570;5.638;2023-07-13T06:36:10;18.40;68.90
81321;DHT22;70785;52.570;5.638;2023-07-13T06:38:37;18.40;68.90
81321;DHT22;70785;52.570;5.638;2023-07-13T06:41:04;18.50;68.90
81321;DHT22;70785;52.570;5.638;2023-07-13T06:43:30;18.60;68.70
81321;DHT22;70785;52.570;5.638;2023-07-13T06:45:57;18.60;68.70
81321;DHT22;70785;52.570;5.638;2023-07-13T06:48:24;18.60;68.60
81321;DHT22;70785;52.570;5.638;2023-07-13T06:50:50;18.60;68.60
81321;DHT22;70785;52.570;5.638;2023-07-13T06:53:18;18.60;68.50
81321;DHT22;70785;52.570;5.638;2023-07-13T06:55:45;18.60;68.50
81321;DHT22;70785;52.570;5.638;2023-07-13T06:58:12;18.60;68.50
81321;DHT22;70785;52.570;5.638;2023-07-13T07:00:38;18.50;68.70
81321;DHT22;70785;52.570;5.638;2023-07-13T07:03:06;18.50;68.70
81321;DHT22;70785;52.570;5.638;2023-07-13T07:05:32;18.50;68.80
81321;DHT22;70785;52.570;5.638;2023-07-13T07:07:59;18.50;68.90
81321;DHT22;70785;52.570;5.638;2023-07-13T07:10:25;18.50;68.80
81321;DHT22;70785;52.570;5.638;2023-07-13T07:12:52;18.60;68.70
81321;DHT22;70785;52.570;5.638;2023-07-13T07:15:18;18.60;68.90
81321;DHT22;70785;52.570;5.638;2023-07-13T07:17:44;18.70;68.80
81321;DHT22;70785;52.570;5.638;2023-07-13T07:20:11;18.80;68.60
81321;DHT22;70785;52.570;5.638;2023-07-13T07:22:37;19.00;68.50
81321;DHT22;70785;52.570;5.638;2023-07-13T07:25:03;19.40;68.20
81321;DHT22;70785;52.570;5.638;2023-07-13T07:27:30;19.70;67.80
81321;DHT22;70785;52.570;5.638;2023-07-13T07:29:56;19.70;67.50
81321;DHT22;70785;52.570;5.638;2023-07-13T07:32:23;19.90;67.40
81321;DHT22;70785;52.570;5.638;2023-07-13T07:34:50;20.00;67.10
81321;DHT22;70785;52.570;5.638;2023-07-13T07:37:16;20.20;66.70
81321;DHT22;70785;52.570;5.638;2023-07-13T07:39:45;20.30;66.20
81321;DHT22;70785;52.570;5.638;2023-07-13T07:42:11;20.30;65.90
81321;DHT22;70785;52.570;5.638;2023-07-13T07:44:40;20.20;65.80
81321;DHT22;70785;52.570;5.638;2023-07-13T07:47:08;20.10;65.60
81321;DHT22;70785;52.570;5.638;2023-07-13T07:49:35;20.00;65.50
81321;DHT22;70785;52.570;5.638;2023-07-13T07:52:01;20.00;65.20
81321;DHT22;70785;52.570;5.638;2023-07-13T07:54:28;20.10;64.80
81321;DHT22;70785;52.570;5.638;2023-07-13T07:56:54;20.30;64.20
81321;DHT22;70785;52.570;5.638;2023-07-13T07:59:20;20.40;63.70
81321;DHT22;70785;52.570;5.638;2023-07-13T08:01:46;20.20;63.50
81321;DHT22;70785;52.570;5.638;2023-07-13T08:04:13;20.00;63.70
81321;DHT22;70785;52.570;5.638;2023-07-13T08:06:40;19.80;63.80
81321;DHT22;70785;52.570;5.638;2023-07-13T08:09:06;19.40;63.70
81321;DHT22;70785;52.570;5.638;2023-07-13T08:11:32;19.00;63.80
81321;DHT22;70785;52.570;5.638;2023-07-13T08:13:58;18.60;63.90
81321;DHT22;70785;52.570;5.638;2023-07-13T08:16:25;18.20;64.00
81321;DHT22;70785;52.570;5.638;2023-07-13T08:18:51;18.20;63.90
81321;DHT22;70785;52.570;5.638;2023-07-13T08:21:17;18.10;63.90
81321;DHT22;70785;52.570;5.638;2023-07-13T08:23:45;18.10;63.90
81321;DHT22;70785;52.570;5.638;2023-07-13T08:26:12;18.20;63.90
81321;DHT22;70785;52.570;5.638;2023-07-13T08:28:38;18.20;63.90
81321;DHT22;70785;52.570;5.638;2023-07-13T08:31:06;18.30;64.00
81321;DHT22;70785;52.570;5.638;2023-07-13T08:33:36;18.30;64.10
81321;DHT22;70785;52.570;5.638;2023-07-13T08:36:02;18.20;64.20
81321;DHT22;70785;52.570;5.638;2023-07-13T08:38:29;18.20;64.40
81321;DHT22;70785;52.570;5.638;2023-07-13T08:40:56;18.20;64.50
81321;DHT22;70785;52.570;5.638;2023-07-13T08:43:30;18.30;64.60
81321;DHT22;70785;52.570;5.638;2023-07-13T08:48:32;18.60;64.60
81321;DHT22;70785;52.570;5.638;2023-07-13T08:51:21;18.80;64.40
81321;DHT22;70785;52.570;5.638;2023-07-13T08:53:54;19.00;64.30
81321;DHT22;70785;52.570;5.638;2023-07-13T08:56:27;19.30;64.20
81321;DHT22;70785;52.570;5.638;2023-07-13T08:59:04;19.50;64.10
81321;DHT22;70785;52.570;5.638;2023-07-13T09:04:22;20.00;63.60
81321;DHT22;70785;52.570;5.638;2023-07-13T09:07:07;20.00;63.70
81321;DHT22;70785;52.570;5.638;2023-07-13T09:12:45;20.10;63.40
81321;DHT22;70785;52.570;5.638;2023-07-13T09:15:29;20.00;63.70
81321;DHT22;70785;52.570;5.638;2023-07-13T09:18:01;20.00;63.80
81321;DHT22;70785;52.570;5.638;2023-07-13T09:23:30;20.30;62.80
81321;DHT22;70785;52.570;5.638;2023-07-13T09:26:19;20.50;62.30
81321;DHT22;70785;52.570;5.638;2023-07-13T09:28:55;20.70;60.90
81321;DHT22;70785;52.570;5.638;2023-07-13T09:31:37;20.80;60.30
81321;DHT22;70785;52.570;5.638;2023-07-13T09:34:10;20.90;59.70
81321;DHT22;70785;52.570;5.638;2023-07-13T09:36:36;21.10;59.30
81321;DHT22;70785;52.570;5.638;2023-07-13T09:39:04;21.10;59.10
81321;DHT22;70785;52.570;5.638;2023-07-13T09:41:53;21.30;59.00
81321;DHT22;70785;52.570;5.638;2023-07-13T09:44:34;21.30;58.80
81321;DHT22;70785;52.570;5.638;2023-07-13T09:47:01;21.10;59.20
81321;DHT22;70785;52.570;5.638;2023-07-13T09:49:33;20.90;59.50
81321;DHT22;70785;52.570;5.638;2023-07-13T09:52:06;20.60;59.90
81321;DHT22;70785;52.570;5.638;2023-07-13T09:54:35;20.50;60.20
81321;DHT22;70785;52.570;5.638;2023-07-13T09:57:03;20.60;60.30
81321;DHT22;70785;52.570;5.638;2023-07-13T09:59:39;20.70;60.30
81321;DHT22;70785;52.570;5.638;2023-07-13T10:05:00;21.30;59.70
81321;DHT22;70785;52.570;5.638;2023-07-13T10:07:26;21.30;59.10
81321;DHT22;70785;52.570;5.638;2023-07-13T10:09:58;21.10;58.70
81321;DHT22;70785;52.570;5.638;2023-07-13T10:12:28;20.90;58.70
81321;DHT22;70785;52.570;5.638;2023-07-13T10:14:57;20.90;59.00
81321;DHT22;70785;52.570;5.638;2023-07-13T10:17:31;20.90;58.90
81321;DHT22;70785;52.570;5.638;2023-07-13T10:20:03;21.00;58.70
81321;DHT22;70785;52.570;5.638;2023-07-13T10:22:56;20.90;58.70
81321;DHT22;70785;52.570;5.638;2023-07-13T10:25:26;20.60;58.90
81321;DHT22;70785;52.570;5.638;2023-07-13T10:27:58;20.40;59.20
81321;DHT22;70785;52.570;5.638;2023-07-13T10:30:31;20.50;59.30
81321;DHT22;70785;52.570;5.638;2023-07-13T10:33:01;20.70;59.10
81321;DHT22;70785;52.570;5.638;2023-07-13T10:35:29;21.00;58.90
81321;DHT22;70785;52.570;5.638;2023-07-13T10:38:05;21.10;58.20
81321;DHT22;70785;52.570;5.638;2023-07-13T10:40:38;21.10;58.10
81321;DHT22;70785;52.570;5.638;2023-07-13T10:43:13;21.30;58.00
81321;DHT22;70785;52.570;5.638;2023-07-13T10:45:40;21.40;57.80
81321;DHT22;70785;52.570;5.638;2023-07-13T10:48:11;21.40;57.50
81321;DHT22;70785;52.570;5.638;2023-07-13T10:50:40;21.50;57.40
81321;DHT22;70785;52.570;5.638;2023-07-13T10:53:41;21.50;57.30
81321;DHT22;70785;52.570;5.638;2023-07-13T10:58:40;21.30;57.40
81321;DHT22;70785;52.570;5.638;2023-07-13T11:03:35;21.40;57.50
81321;DHT22;70785;52.570;5.638;2023-07-13T11:06:09;21.50;57.10
81321;DHT22;70785;52.570;5.638;2023-07-13T11:08:50;21.40;57.00
81321;DHT22;70785;52.570;5.638;2023-07-13T11:18:53;21.30;57.70
81321;DHT22;70785;52.570;5.638;2023-07-13T11:21:34;21.70;57.40
81321;DHT22;70785;52.570;5.638;2023-07-13T11:24:16;21.90;56.90
81321;DHT22;70785;52.570;5.638;2023-07-13T11:31:41;22.00;56.00
81321;DHT22;70785;52.570;5.638;2023-07-13T11:34:14;21.90;55.50
81321;DHT22;70785;52.570;5.638;2023-07-13T11:36:44;21.80;55.10
81321;DHT22;70785;52.570;5.638;2023-07-13T11:39:19;21.80;55.10
81321;DHT22;70785;52.570;5.638;2023-07-13T11:41:52;21.90;54.70
81321;DHT22;70785;52.570;5.638;2023-07-13T11:44:22;22.00;54.70
81321;DHT22;70785;52.570;5.638;2023-07-13T11:46:54;22.10;54.80
81321;DHT22;70785;52.570;5.638;2023-07-13T11:49:25;22.20;54.70
81321;DHT22;70785;52.570;5.638;2023-07-13T11:51:53;22.20;54.50
81321;DHT22;70785;52.570;5.638;2023-07-13T11:54:31;22.20;54.60
81321;DHT22;70785;52.570;5.638;2023-07-13T11:57:17;22.40;54.50
81321;DHT22;70785;52.570;5.638;2023-07-13T11:59:50;22.50;54.20
81321;DHT22;70785;52.570;5.638;2023-07-13T12:02:27;22.60;54.20
81321;DHT22;70785;52.570;5.638;2023-07-13T12:04:54;22.70;53.70
81321;DHT22;70785;52.570;5.638;2023-07-13T12:07:22;22.80;53.60
81321;DHT22;70785;52.570;5.638;2023-07-13T12:09:48;22.80;53.60
81321;DHT22;70785;52.570;5.638;2023-07-13T12:12:22;22.80;53.20
81321;DHT22;70785;52.570;5.638;2023-07-13T12:14:52;22.80;53.20
81321;DHT22;70785;52.570;5.638;2023-07-13T12:17:20;22.80;52.90
81321;DHT22;70785;52.570;5.638;2023-07-13T12:19:51;22.80;52.70
81321;DHT22;70785;52.570;5.638;2023-07-13T12:22:20;22.80;52.50
81321;DHT22;70785;52.570;5.638;2023-07-13T12:24:47;22.80;52.60
81321;DHT22;70785;52.570;5.638;2023-07-13T12:27:24;22.90;52.60
81321;DHT22;70785;52.570;5.638;2023-07-13T12:32:19;23.00;52.30
81321;DHT22;70785;52.570;5.638;2023-07-13T12:34:53;23.00;52.30
81321;DHT22;70785;52.570;5.638;2023-07-13T12:37:20;23.00;52.20
81321;DHT22;70785;52.570;5.638;2023-07-13T12:39:47;23.00;52.00
81321;DHT22;70785;52.570;5.638;2023-07-13T12:42:24;23.00;52.20
81321;DHT22;70785;52.570;5.638;2023-07-13T12:45:09;23.00;52.20
81321;DHT22;70785;52.570;5.638;2023-07-13T12:47:43;23.00;52.20
81321;DHT22;70785;52.570;5.638;2023-07-13T12:50:16;23.00;52.20
81321;DHT22;70785;52.570;5.638;2023-07-13T12:52:43;23.00;52.20
81321;DHT22;70785;52.570;5.638;2023-07-13T12:55:17;23.00;52.20
81321;DHT22;70785;52.570;5.638;2023-07-13T12:57:53;23.00;52.40
81321;DHT22;70785;52.570;5.638;2023-07-13T13:00:31;23.00;52.30
81321;DHT22;70785;52.570;5.638;2023-07-13T13:03:17;22.90;52.30
81321;DHT22;70785;52.570;5.638;2023-07-13T13:05:46;22.90;52.00
81321;DHT22;70785;52.570;5.638;2023-07-13T13:08:12;22.80;52.10
81321;DHT22;70785;52.570;5.638;2023-07-13T13:10:38;22.90;51.70
81321;DHT22;70785;52.570;5.638;2023-07-13T13:13:05;22.80;51.80
81321;DHT22;70785;52.570;5.638;2023-07-13T13:15:31;22.80;52.10
81321;DHT22;70785;52.570;5.638;2023-07-13T13:17:58;22.90;52.40
81321;DHT22;70785;52.570;5.638;2023-07-13T13:20:25;22.90;52.30
81321;DHT22;70785;52.570;5.638;2023-07-13T13:22:52;22.90;52.00
81321;DHT22;70785;52.570;5.638;2023-07-13T13:25:18;22.70;52.20
81321;DHT22;70785;52.570;5.638;2023-07-13T13:27:45;22.70;52.40
81321;DHT22;70785;52.570;5.638;2023-07-13T13:30:12;22.80;52.80
81321;DHT22;70785;52.570;5.638;2023-07-13T13:32:40;22.90;52.40
81321;DHT22;70785;52.570;5.638;2023-07-13T13:35:16;22.90;52.50
81321;DHT22;70785;52.570;5.638;2023-07-13T13:37:42;23.10;52.60
81321;DHT22;70785;52.570;5.638;2023-07-13T13:40:16;23.10;52.40
81321;DHT22;70785;52.570;5.638;2023-07-13T13:42:42;23.20;52.70
81321;DHT22;70785;52.570;5.638;2023-07-13T13:45:09;23.40;52.80
81321;DHT22;70785;52.570;5.638;2023-07-13T13:47:36;23.60;52.80
81321;DHT22;70785;52.570;5.638;2023-07-13T13:52:37;23.80;52.40
81321;DHT22;70785;52.570;5.638;2023-07-13T13:55:12;23.90;52.60
81321;DHT22;70785;52.570;5.638;2023-07-13T13:57:38;24.20;52.70
81321;DHT22;70785;52.570;5.638;2023-07-13T14:00:05;24.40;52.50
81321;DHT22;70785;52.570;5.638;2023-07-13T14:02:31;24.60;51.70
81321;DHT22;70785;52.570;5.638;2023-07-13T14:05:00;24.80;51.70
81321;DHT22;70785;52.570;5.638;2023-07-13T14:07:27;24.90;51.40
81321;DHT22;70785;52.570;5.638;2023-07-13T14:09:57;24.90;51.60
81321;DHT22;70785;52.570;5.638;2023-07-13T14:12:23;25.00;51.50
81321;DHT22;70785;52.570;5.638;2023-07-13T14:14:55;25.30;51.40
81321;DHT22;70785;52.570;5.638;2023-07-13T14:17:25;25.50;51.10
81321;DHT22;70785;52.570;5.638;2023-07-13T14:19:52;25.70;51.10
81321;DHT22;70785;52.570;5.638;2023-07-13T14:22:26;25.90;51.30
81321;DHT22;70785;52.570;5.638;2023-07-13T14:24:53;26.20;50.90
81321;DHT22;70785;52.570;5.638;2023-07-13T14:27:20;26.50;50.00
81321;DHT22;70785;52.570;5.638;2023-07-13T14:29:46;26.40;49.70
81321;DHT22;70785;52.570;5.638;2023-07-13T14:32:12;26.40;49.90
81321;DHT22;70785;52.570;5.638;2023-07-13T14:34:39;26.40;50.00
81321;DHT22;70785;52.570;5.638;2023-07-13T14:37:08;26.40;49.90
81321;DHT22;70785;52.570;5.638;2023-07-13T14:39:37;26.60;49.70
81321;DHT22;70785;52.570;5.638;2023-07-13T14:42:04;26.60;49.70
81321;DHT22;70785;52.570;5.638;2023-07-13T14:44:32;26.70;49.00
81321;DHT22;70785;52.570;5.638;2023-07-13T14:47:01;26.60;48.90
81321;DHT22;70785;52.570;5.638;2023-07-13T14:49:34;26.50;49.10
81321;DHT22;70785;52.570;5.638;2023-07-13T14:52:08;26.50;49.20
81321;DHT22;70785;52.570;5.638;2023-07-13T14:54:36;26.60;48.90
81321;DHT22;70785;52.570;5.638;2023-07-13T14:57:10;26.90;48.90
81321;DHT22;70785;52.570;5.638;2023-07-13T14:59:36;27.00;48.90
81321;DHT22;70785;52.570;5.638;2023-07-13T15:02:02;27.00;48.50
81321;DHT22;70785;52.570;5.638;2023-07-13T15:04:29;27.10;48.00
81321;DHT22;70785;52.570;5.638;2023-07-13T15:06:59;26.90;47.70
81321;DHT22;70785;52.570;5.638;2023-07-13T15:09:26;26.80;48.10
81321;DHT22;70785;52.570;5.638;2023-07-13T15:11:54;26.90;48.30
81321;DHT22;70785;52.570;5.638;2023-07-13T15:14:20;26.80;48.00
81321;DHT22;70785;52.570;5.638;2023-07-13T15:16:48;26.70;48.20
81321;DHT22;70785;52.570;5.638;2023-07-13T15:19:16;26.80;48.20
81321;DHT22;70785;52.570;5.638;2023-07-13T15:21:43;27.10;48.20
81321;DHT22;70785;52.570;5.638;2023-07-13T15:24:10;27.30;47.80
81321;DHT22;70785;52.570;5.638;2023-07-13T15:26:37;27.30;48.00
81321;DHT22;70785;52.570;5.638;2023-07-13T15:29:05;27.40;47.90
81321;DHT22;70785;52.570;5.638;2023-07-13T15:31:32;27.20;47.90
81321;DHT22;70785;52.570;5.638;2023-07-13T15:34:00;27.20;48.00
81321;DHT22;70785;52.570;5.638;2023-07-13T15:36:26;27.20;48.20
81321;DHT22;70785;52.570;5.638;2023-07-13T15:38:54;27.40;48.20
81321;DHT22;70785;52.570;5.638;2023-07-13T15:41:26;27.60;48.10
81321;DHT22;70785;52.570;5.638;2023-07-13T15:43:55;28.00;47.50
81321;DHT22;70785;52.570;5.638;2023-07-13T15:46:23;28.10;47.40
81321;DHT22;70785;52.570;5.638;2023-07-13T15:48:50;28.00;47.30
81321;DHT22;70785;52.570;5.638;2023-07-13T15:51:29;27.50;47.30
81321;DHT22;70785;52.570;5.638;2023-07-13T15:53:58;26.70;47.60
81321;DHT22;70785;52.570;5.638;2023-07-13T15:56:29;26.00;48.20
81321;DHT22;70785;52.570;5.638;2023-07-13T15:58:55;25.30;49.10
81321;DHT22;70785;52.570;5.638;2023-07-13T16:01:22;24.80;49.50
81321;DHT22;70785;52.570;5.638;2023-07-13T16:03:49;24.40;50.00
81321;DHT22;70785;52.570;5.638;2023-07-13T16:06:23;24.20;50.50
81321;DHT22;70785;52.570;5.638;2023-07-13T16:08:53;24.20;51.00
81321;DHT22;70785;52.570;5.638;2023-07-13T16:11:27;24.50;51.10
81321;DHT22;70785;52.570;5.638;2023-07-13T16:13:54;24.70;50.90
81321;DHT22;70785;52.570;5.638;2023-07-13T16:16:27;24.60;50.90
81321;DHT22;70785;52.570;5.638;2023-07-13T16:18:55;24.40;51.00